createdAt,value
2018-09-20T00:00:19.095Z,6.30
2018-09-20T00:02:47.318Z,6.57
2018-09-20T00:05:15.558Z,6.70
2018-09-20T00:07:43.756Z,6.30
2018-09-20T00:10:11.985Z,6.20
2018-09-20T00:12:40.218Z,6.20
2018-09-20T00:15:08.477Z,6.50
2018-09-20T00:17:36.672Z,6.53
2018-09-20T00:20:05.542Z,6.60
2018-09-20T00:22:33.735Z,6.97
2018-09-20T00:25:01.921Z,6.93
2018-09-20T00:27:30.128Z,6.70
2018-09-20T00:29:58.323Z,6.80
2018-09-20T00:32:26.525Z,6.87
2018-09-20T00:34:55.225Z,6.00
2018-09-20T00:37:23.476Z,6.93
2018-09-20T00:39:51.669Z,6.30
2018-09-20T00:42:19.873Z,6.53
2018-09-20T00:44:48.049Z,5.97
2018-09-20T00:47:16.234Z,6.47
2018-09-20T00:49:44.441Z,7.17
2018-09-20T00:52:12.621Z,7.83
2018-09-20T00:54:40.831Z,7.30
2018-09-20T00:57:09.018Z,6.80
2018-09-20T00:59:37.225Z,6.23
2018-09-20T01:02:05.475Z,8.83
2018-09-20T01:04:33.973Z,7.47
2018-09-20T01:07:02.254Z,6.87
2018-09-20T01:09:30.500Z,6.53
2018-09-20T01:11:58.729Z,7.13
2018-09-20T01:14:26.943Z,7.07
2018-09-20T01:16:55.161Z,7.13
2018-09-20T01:19:23.378Z,7.40
2018-09-20T01:21:51.650Z,6.30
2018-09-20T01:24:19.834Z,7.00
2018-09-20T01:26:48.021Z,7.17
2018-09-20T01:29:16.205Z,6.83
2018-09-20T01:31:44.393Z,6.43
2018-09-20T01:34:12.602Z,7.50
2018-09-20T01:36:40.811Z,7.73
2018-09-20T01:39:14.049Z,7.10
2018-09-20T01:41:42.313Z,6.90
2018-09-20T01:44:11.181Z,7.23
2018-09-20T01:46:39.370Z,7.43
2018-09-20T01:49:08.265Z,7.30
2018-09-20T01:51:36.561Z,7.50
2018-09-20T01:54:04.754Z,7.00
2018-09-20T01:56:32.939Z,8.10
2018-09-20T01:59:01.114Z,7.70
2018-09-20T02:01:29.379Z,7.40
2018-09-20T02:03:57.609Z,7.33
2018-09-20T02:06:25.850Z,8.10
2018-09-20T02:08:54.039Z,7.10
2018-09-20T02:11:22.222Z,6.47
2018-09-20T02:13:50.423Z,7.30
2018-09-20T02:16:18.619Z,7.80
2018-09-20T02:18:46.794Z,7.17
2018-09-20T02:21:15.106Z,7.00
2018-09-20T02:23:43.292Z,7.53
2018-09-20T02:26:11.466Z,6.23
2018-09-20T02:28:39.642Z,5.43
2018-09-20T02:31:07.826Z,7.00
2018-09-20T02:33:36.018Z,6.70
2018-09-20T02:36:04.206Z,6.50
2018-09-20T02:38:32.385Z,6.10
2018-09-20T02:41:00.569Z,6.63
2018-09-20T02:43:28.779Z,5.83
2018-09-20T02:45:56.962Z,7.67
2018-09-20T02:48:25.137Z,6.20
2018-09-20T02:50:53.314Z,5.60
2018-09-20T02:53:21.526Z,6.50
2018-09-20T02:55:49.725Z,6.40
2018-09-20T02:58:17.934Z,6.10
2018-09-20T03:00:46.152Z,6.50
2018-09-20T03:03:14.441Z,6.50
2018-09-20T03:05:42.754Z,5.93
2018-09-20T03:08:10.939Z,6.57
2018-09-20T03:10:39.114Z,6.13
2018-09-20T03:13:07.302Z,5.60
2018-09-20T03:15:35.495Z,6.20
2018-09-20T03:18:03.720Z,6.00
2018-09-20T03:20:31.899Z,6.30
2018-09-20T03:23:00.110Z,5.70
2018-09-20T03:25:28.283Z,6.43
2018-09-20T03:27:56.465Z,6.23
2018-09-20T03:30:25.169Z,6.07
2018-09-20T03:32:53.327Z,5.67
2018-09-20T03:35:21.515Z,6.03
2018-09-20T03:37:49.718Z,5.97
2018-09-20T03:40:17.890Z,6.73
2018-09-20T03:42:46.094Z,6.23
2018-09-20T03:45:14.274Z,5.47
2018-09-20T03:47:42.458Z,6.10
2018-09-20T03:50:10.625Z,5.67
2018-09-20T03:52:38.814Z,5.97
2018-09-20T03:55:07.150Z,5.40
2018-09-20T03:57:35.369Z,5.53
2018-09-20T04:00:03.554Z,6.47
2018-09-20T04:02:31.775Z,6.17
2018-09-20T04:04:59.942Z,6.57
2018-09-20T04:07:28.134Z,6.70
2018-09-20T04:09:56.325Z,6.30
2018-09-20T04:12:24.494Z,5.70
2018-09-20T04:14:52.674Z,6.10
2018-09-20T04:17:20.846Z,6.10
2018-09-20T04:19:49.040Z,5.20
2018-09-20T04:22:17.218Z,5.83
2018-09-20T04:24:45.406Z,6.43
2018-09-20T04:27:13.586Z,6.77
2018-09-20T04:29:41.778Z,6.80
2018-09-20T04:32:09.967Z,7.03
2018-09-20T04:34:38.166Z,7.80
2018-09-20T04:37:06.362Z,6.63
2018-09-20T04:39:34.554Z,6.30
2018-09-20T04:42:02.723Z,6.73
2018-09-20T04:44:30.906Z,6.37
2018-09-20T04:46:59.110Z,5.77
2018-09-20T04:49:27.298Z,6.13
2018-09-20T04:51:55.505Z,5.97
2018-09-20T04:54:23.708Z,6.13
2018-09-20T04:56:51.882Z,5.70
2018-09-20T04:59:20.070Z,6.40
2018-09-20T05:01:48.287Z,6.30
2018-09-20T05:04:16.474Z,5.97
2018-09-20T05:06:44.650Z,6.87
2018-09-20T05:09:14.029Z,5.87
2018-09-20T05:11:43.123Z,6.30
2018-09-20T05:14:11.715Z,7.03
2018-09-20T05:16:40.333Z,6.87
2018-09-20T05:19:08.535Z,7.80
2018-09-20T05:21:36.790Z,7.30
2018-09-20T05:24:05.123Z,7.27
2018-09-20T05:26:33.298Z,7.00
2018-09-20T05:29:01.486Z,8.13
2018-09-20T05:31:29.686Z,7.50
2018-09-20T05:33:57.882Z,6.97
2018-09-20T05:36:26.218Z,7.50
2018-09-20T05:38:54.398Z,6.73
2018-09-20T05:41:22.588Z,7.03
2018-09-20T05:43:50.782Z,6.77
2018-09-20T05:46:18.970Z,6.10
2018-09-20T05:48:47.219Z,7.57
2018-09-20T05:51:15.395Z,6.40
2018-09-20T05:53:43.594Z,7.97
2018-09-20T05:56:11.815Z,7.80
2018-09-20T05:58:40.001Z,7.10
2018-09-20T06:01:08.222Z,8.27
2018-09-20T06:03:36.396Z,7.30
2018-09-20T06:06:04.603Z,7.80
2018-09-20T06:08:32.774Z,8.03
2018-09-20T06:11:01.010Z,7.17
2018-09-20T06:13:29.181Z,8.30
2018-09-20T06:15:57.395Z,7.67
2018-09-20T06:18:25.574Z,9.00
2018-09-20T06:20:53.785Z,8.80
2018-09-20T06:23:21.983Z,8.50
2018-09-20T06:25:50.171Z,9.37
2018-09-20T06:28:18.354Z,8.10
2018-09-20T06:30:46.554Z,7.10
2018-09-20T06:33:14.734Z,8.10
2018-09-20T06:35:42.898Z,7.73
2018-09-20T06:38:11.054Z,7.90
2018-09-20T06:40:39.223Z,8.30
2018-09-20T06:43:07.394Z,8.20
2018-09-20T06:45:35.566Z,8.37
2018-09-20T06:48:03.735Z,8.67
2018-09-20T06:50:37.611Z,8.70
2018-09-20T06:53:05.842Z,8.70
2018-09-20T06:55:34.106Z,9.83
2018-09-20T06:58:02.318Z,8.30
2018-09-20T07:00:30.510Z,6.80
2018-09-20T07:02:58.731Z,7.70
2018-09-20T07:05:26.859Z,8.00
2018-09-20T07:07:55.042Z,7.87
2018-09-20T07:10:23.210Z,7.83
2018-09-20T07:12:51.418Z,8.50
2018-09-20T07:15:19.608Z,7.50
2018-09-20T07:17:47.775Z,8.90
2018-09-20T07:20:15.978Z,7.57
2018-09-20T07:22:44.154Z,8.50
2018-09-20T07:25:12.372Z,8.50
2018-09-20T07:27:40.574Z,7.83
2018-09-20T07:30:08.811Z,7.53
2018-09-20T07:32:37.010Z,7.83
2018-09-20T14:57:48.689Z,3.15
2018-09-20T15:00:16.973Z,3.00
2018-09-20T15:02:45.294Z,3.30
2018-09-20T15:05:13.522Z,3.75
2018-09-20T15:07:41.930Z,3.10
2018-09-20T15:10:10.070Z,4.13
2018-09-20T15:12:38.270Z,3.70
2018-09-20T15:15:06.510Z,3.60
2018-09-20T15:17:34.681Z,3.60
2018-09-20T15:20:02.869Z,3.47
2018-09-20T15:22:31.094Z,3.50
2018-09-20T15:24:59.294Z,3.47
2018-09-20T15:27:27.521Z,3.58
2018-09-20T15:29:55.750Z,3.40
2018-09-20T15:32:23.991Z,3.33
2018-09-20T15:34:52.130Z,3.60
2018-09-20T15:37:20.363Z,3.77
2018-09-20T15:39:48.573Z,3.22
2018-09-20T15:42:16.742Z,3.40
2018-09-20T15:44:44.979Z,3.70
2018-09-20T15:47:13.296Z,4.03
2018-09-20T15:49:41.507Z,5.50
2018-09-20T15:52:09.739Z,4.05
2018-09-20T15:54:37.950Z,3.70
2018-09-20T15:57:06.114Z,3.60
2018-09-20T15:59:34.270Z,3.70
2018-09-20T16:02:02.461Z,4.00
2018-09-20T16:04:30.748Z,3.90
2018-09-20T16:06:58.955Z,4.00
2018-09-20T16:09:27.266Z,4.70
2018-09-20T16:11:55.554Z,3.70
2018-09-20T16:14:23.743Z,3.42
2018-09-20T16:16:51.896Z,5.78
2018-09-20T16:19:20.098Z,4.90
2018-09-20T16:21:48.287Z,3.70
2018-09-20T16:24:16.470Z,3.43
2018-09-20T16:26:44.637Z,4.20
2018-09-20T16:29:23.998Z,3.60
2018-09-20T16:36:38.302Z,3.73
2018-09-20T16:39:15.615Z,3.80
2018-09-20T16:41:46.165Z,3.90
2018-09-20T16:44:14.365Z,4.43
2018-09-20T16:46:42.523Z,3.90
2018-09-20T16:49:10.775Z,4.00
2018-09-20T16:51:38.939Z,3.70
2018-09-20T16:54:10.222Z,4.20
2018-09-20T16:59:05.904Z,4.40
2018-09-20T17:21:14.130Z,3.77
2018-09-20T17:23:42.295Z,4.67
2018-09-20T17:26:10.441Z,4.30
2018-09-20T17:28:38.698Z,3.97
2018-09-20T17:31:06.898Z,4.70
2018-09-20T17:33:35.063Z,4.03
2018-09-20T17:36:03.299Z,4.73
2018-09-20T17:38:31.969Z,5.03
2018-09-20T17:41:09.557Z,4.47
2018-09-20T17:43:42.735Z,4.10
2018-09-20T17:46:10.911Z,4.10
2018-09-20T17:48:39.219Z,4.40
2018-09-20T17:51:07.746Z,5.00
2018-09-20T17:53:36.522Z,3.70
2018-09-20T17:56:04.954Z,4.40
2018-09-20T17:58:34.007Z,3.90
2018-09-20T18:01:02.321Z,4.30
2018-09-20T18:03:30.519Z,4.63
2018-09-20T18:05:58.685Z,4.60
2018-09-20T18:08:26.866Z,4.90
2018-09-20T18:10:55.055Z,4.97
2018-09-20T18:13:23.264Z,4.97
2018-09-20T18:15:51.547Z,4.83
2018-09-20T18:18:20.030Z,4.53
2018-09-20T18:20:48.358Z,5.43
2018-09-20T18:23:16.533Z,4.90
2018-09-20T18:25:44.719Z,4.77
2018-09-20T18:28:12.894Z,4.93
2018-09-20T18:30:41.259Z,4.83
2018-09-20T18:33:09.468Z,5.10
2018-09-20T18:35:37.663Z,4.90
2018-09-20T18:38:05.862Z,4.83
2018-09-20T18:40:34.059Z,5.50
2018-09-20T18:43:02.250Z,5.70
2018-09-20T18:45:30.477Z,5.20
2018-09-20T18:47:58.666Z,5.30
2018-09-20T18:50:26.838Z,5.37
2018-09-20T18:52:55.028Z,4.20
2018-09-20T18:55:23.263Z,5.00
2018-09-20T18:57:51.411Z,6.20
2018-09-20T19:00:19.632Z,5.23
2018-09-20T19:02:47.822Z,5.43
2018-09-20T19:05:16.011Z,8.17
2018-09-20T19:07:44.219Z,6.90
2018-09-20T19:10:12.390Z,5.80
2018-09-20T19:12:40.599Z,5.60
2018-09-20T19:15:09.759Z,5.77
2018-09-20T19:17:37.979Z,5.57
2018-09-20T19:20:06.753Z,5.90
2018-09-20T19:22:34.968Z,6.40
2018-09-20T19:25:03.459Z,5.70
2018-09-20T19:27:31.669Z,5.67
2018-09-20T19:29:59.854Z,6.23
2018-09-20T19:32:28.047Z,6.13
2018-09-20T19:34:56.223Z,5.53
2018-09-20T19:37:24.434Z,5.47
2018-09-20T19:39:52.642Z,5.57
2018-09-20T19:42:20.874Z,5.67
2018-09-20T19:44:49.703Z,5.50
2018-09-20T19:47:17.994Z,5.83
2018-09-20T19:49:46.160Z,7.27
2018-09-20T19:52:14.393Z,7.60
2018-09-20T19:54:42.503Z,7.40
2018-09-20T19:57:10.679Z,8.10
2018-09-20T19:59:38.939Z,9.17
2018-09-20T20:02:07.124Z,8.00
2018-09-20T20:04:35.305Z,8.17
2018-09-20T20:07:03.502Z,7.30
2018-09-20T20:09:31.650Z,7.63
2018-09-20T20:11:59.822Z,7.50
2018-09-20T20:14:27.999Z,8.00
2018-09-20T20:16:56.167Z,7.00
2018-09-20T20:19:24.386Z,8.60
2018-09-20T20:21:52.493Z,8.20
2018-09-20T20:24:20.677Z,8.17
2018-09-20T20:26:48.842Z,7.03
2018-09-20T20:29:17.010Z,6.83
2018-09-20T20:31:45.187Z,8.70
2018-09-20T20:34:13.351Z,7.80
2018-09-20T20:36:41.551Z,7.33
2018-09-20T20:39:10.335Z,7.00
2018-09-20T20:41:38.558Z,7.60
2018-09-20T20:44:06.782Z,7.77
2018-09-20T20:46:35.022Z,7.93
2018-09-20T20:49:03.198Z,7.50
2018-09-20T20:51:31.383Z,7.27
2018-09-20T20:53:59.619Z,6.70
2018-09-20T20:56:27.807Z,7.33
2018-09-20T20:58:56.086Z,6.80
2018-09-20T21:01:24.182Z,6.53
2018-09-20T21:03:52.374Z,5.97
2018-09-20T21:06:20.562Z,6.50
2018-09-20T21:08:48.757Z,5.97
2018-09-20T21:11:17.322Z,7.40
2018-09-20T21:13:45.530Z,7.47
2018-09-20T21:16:13.755Z,7.80
2018-09-20T21:18:41.974Z,7.43
2018-09-20T21:21:10.158Z,8.30
2018-09-20T21:23:38.357Z,6.50
2018-09-20T21:26:06.570Z,7.90
2018-09-20T21:28:34.762Z,7.50
2018-09-20T21:31:02.962Z,7.07
2018-09-20T21:33:31.153Z,7.60
2018-09-20T21:35:59.346Z,7.83
2018-09-20T21:38:27.554Z,7.30
2018-09-20T21:40:55.766Z,6.80
2018-09-20T21:43:23.953Z,7.87
2018-09-20T21:45:52.156Z,7.27
2018-09-20T21:48:20.399Z,6.73
2018-09-20T21:50:48.608Z,7.10
2018-09-20T21:53:16.804Z,7.03
2018-09-20T21:56:13.538Z,7.90
2018-09-20T21:58:41.868Z,6.70
2018-09-20T22:01:13.561Z,7.00
2018-09-20T22:03:41.752Z,6.20
2018-09-20T22:06:10.146Z,7.00
2018-09-20T22:08:38.330Z,6.60
2018-09-20T22:11:06.571Z,6.37
2018-09-20T22:13:34.831Z,7.00
2018-09-20T22:16:03.034Z,6.83
2018-09-20T22:18:31.218Z,7.67
2018-09-20T22:20:59.410Z,7.10
2018-09-20T22:23:27.640Z,6.30
2018-09-20T22:25:55.814Z,7.17
2018-09-20T22:28:24.038Z,7.00
2018-09-20T22:30:52.262Z,8.23
2018-09-20T22:33:20.484Z,7.10
2018-09-20T22:35:48.655Z,7.20
2018-09-20T22:38:16.844Z,7.20
2018-09-20T22:40:45.055Z,7.13
2018-09-20T22:43:13.201Z,6.70
2018-09-20T22:45:41.371Z,7.10
2018-09-20T22:48:09.535Z,6.60
2018-09-20T22:50:37.746Z,6.67
2018-09-20T22:53:06.442Z,7.23
2018-09-20T22:55:34.630Z,6.70
2018-09-20T22:58:02.811Z,6.73
2018-09-20T23:00:31.010Z,5.63
2018-09-20T23:02:59.174Z,6.63
2018-09-20T23:05:27.368Z,6.60
2018-09-20T23:07:55.542Z,6.47
2018-09-20T23:10:23.728Z,7.10
2018-09-20T23:12:51.923Z,6.10
2018-09-20T23:15:20.114Z,7.37
2018-09-20T23:17:48.286Z,7.17
2018-09-20T23:20:16.474Z,7.57
2018-09-20T23:22:44.646Z,7.50
2018-09-20T23:25:12.802Z,7.30
2018-09-20T23:27:40.981Z,6.17
2018-09-20T23:30:09.158Z,6.90
2018-09-20T23:32:37.315Z,6.20
2018-09-20T23:35:05.505Z,7.00
2018-09-20T23:37:33.694Z,6.40
2018-09-20T23:40:01.869Z,6.13
2018-09-20T23:42:30.039Z,6.00
2018-09-20T23:44:58.223Z,6.63
2018-09-20T23:47:26.458Z,5.90
2018-09-20T23:49:54.651Z,6.03
2018-09-20T23:52:22.815Z,6.07
2018-09-20T23:54:51.002Z,6.77
2018-09-20T23:57:19.202Z,6.03
2018-09-20T23:59:47.403Z,6.40
